sensor_id;sensor_type;location;lat;lon;timestamp;P1;durP1;ratioP1;P2;durP2;ratioP2
13222;SDS011;6676;45.192;5.722;2023-04-21T00:00:04;4.67;;;4.17;;
13222;SDS011;6676;45.192;5.722;2023-04-21T00:03:00;6.45;;;3.98;;
13222;SDS011;6676;45.192;5.722;2023-04-21T00:05:54;4.80;;;4.30;;
13222;SDS011;6676;45.192;5.722;2023-04-21T00:08:46;4.35;;;3.77;;
13222;SDS011;6676;45.192;5.722;2023-04-21T00:11:37;4.53;;;3.77;;
13222;SDS011;6676;45.192;5.722;2023-04-21T00:14:28;3.40;;;3.10;;
13222;SDS011;6676;45.192;5.722;2023-04-21T00:17:20;4.67;;;3.50;;
13222;SDS011;6676;45.192;5.722;2023-04-21T00:20:12;4.20;;;3.55;;
13222;SDS011;6676;45.192;5.722;2023-04-21T00:23:05;3.92;;;3.50;;
13222;SDS011;6676;45.192;5.722;2023-04-21T00:25:58;4.45;;;3.30;;
13222;SDS011;6676;45.192;5.722;2023-04-21T00:28:50;5.28;;;3.50;;
13222;SDS011;6676;45.192;5.722;2023-04-21T00:31:43;3.42;;;3.12;;
13222;SDS011;6676;45.192;5.722;2023-04-21T00:34:35;6.15;;;3.60;;
13222;SDS011;6676;45.192;5.722;2023-04-21T00:37:26;4.33;;;3.65;;
13222;SDS011;6676;45.192;5.722;2023-04-21T00:40:18;3.87;;;3.47;;
13222;SDS011;6676;45.192;5.722;2023-04-21T00:43:09;4.37;;;3.70;;
13222;SDS011;6676;45.192;5.722;2023-04-21T00:46:00;4.30;;;3.60;;
13222;SDS011;6676;45.192;5.722;2023-04-21T00:48:52;4.28;;;3.58;;
13222;SDS011;6676;45.192;5.722;2023-04-21T00:51:44;5.53;;;4.05;;
13222;SDS011;6676;45.192;5.722;2023-04-21T00:54:35;4.30;;;3.90;;
13222;SDS011;6676;45.192;5.722;2023-04-21T00:57:29;5.58;;;4.30;;
13222;SDS011;6676;45.192;5.722;2023-04-21T01:00:21;4.87;;;3.83;;
13222;SDS011;6676;45.192;5.722;2023-04-21T01:03:13;4.30;;;3.65;;
13222;SDS011;6676;45.192;5.722;2023-04-21T01:05:53;4.42;;;4.03;;
13222;SDS011;6676;45.192;5.722;2023-04-21T01:08:45;4.83;;;3.90;;
13222;SDS011;6676;45.192;5.722;2023-04-21T01:11:38;5.08;;;4.17;;
13222;SDS011;6676;45.192;5.722;2023-04-21T01:14:29;4.80;;;4.08;;
13222;SDS011;6676;45.192;5.722;2023-04-21T01:17:21;4.47;;;3.50;;
13222;SDS011;6676;45.192;5.722;2023-04-21T01:20:13;4.08;;;3.50;;
13222;SDS011;6676;45.192;5.722;2023-04-21T01:25:42;3.55;;;2.90;;
13222;SDS011;6676;45.192;5.722;2023-04-21T01:28:34;4.37;;;3.15;;
13222;SDS011;6676;45.192;5.722;2023-04-21T01:31:26;4.72;;;3.05;;
13222;SDS011;6676;45.192;5.722;2023-04-21T01:34:18;3.65;;;2.85;;
13222;SDS011;6676;45.192;5.722;2023-04-21T01:37:10;3.35;;;2.60;;
13222;SDS011;6676;45.192;5.722;2023-04-21T01:40:06;3.98;;;2.62;;
13222;SDS011;6676;45.192;5.722;2023-04-21T01:42:58;2.58;;;2.30;;
13222;SDS011;6676;45.192;5.722;2023-04-21T01:45:51;3.90;;;2.60;;
13222;SDS011;6676;45.192;5.722;2023-04-21T01:48:43;4.10;;;2.40;;
13222;SDS011;6676;45.192;5.722;2023-04-21T01:51:34;3.08;;;2.60;;
13222;SDS011;6676;45.192;5.722;2023-04-21T01:54:25;4.45;;;2.72;;
13222;SDS011;6676;45.192;5.722;2023-04-21T01:57:17;3.12;;;2.83;;
13222;SDS011;6676;45.192;5.722;2023-04-21T02:00:11;3.37;;;2.42;;
13222;SDS011;6676;45.192;5.722;2023-04-21T02:03:04;3.77;;;2.87;;
13222;SDS011;6676;45.192;5.722;2023-04-21T02:05:55;4.05;;;3.25;;
13222;SDS011;6676;45.192;5.722;2023-04-21T02:08:47;4.62;;;3.50;;
13222;SDS011;6676;45.192;5.722;2023-04-21T02:11:39;3.72;;;3.15;;
13222;SDS011;6676;45.192;5.722;2023-04-21T02:14:30;4.28;;;3.87;;
13222;SDS011;6676;45.192;5.722;2023-04-21T02:17:22;5.00;;;4.08;;
13222;SDS011;6676;45.192;5.722;2023-04-21T02:20:15;4.50;;;3.67;;
13222;SDS011;6676;45.192;5.722;2023-04-21T02:23:07;4.87;;;4.12;;
13222;SDS011;6676;45.192;5.722;2023-04-21T02:25:58;6.75;;;4.20;;
13222;SDS011;6676;45.192;5.722;2023-04-21T02:28:52;4.90;;;4.40;;
13222;SDS011;6676;45.192;5.722;2023-04-21T02:31:43;6.08;;;4.60;;
13222;SDS011;6676;45.192;5.722;2023-04-21T02:34:36;5.37;;;4.30;;
13222;SDS011;6676;45.192;5.722;2023-04-21T02:37:29;5.62;;;4.67;;
13222;SDS011;6676;45.192;5.722;2023-04-21T02:40:21;5.78;;;4.87;;
13222;SDS011;6676;45.192;5.722;2023-04-21T02:43:13;7.42;;;5.33;;
13222;SDS011;6676;45.192;5.722;2023-04-21T02:46:07;5.55;;;4.67;;
13222;SDS011;6676;45.192;5.722;2023-04-21T02:49:00;6.00;;;4.40;;
13222;SDS011;6676;45.192;5.722;2023-04-21T02:51:51;6.25;;;4.67;;
13222;SDS011;6676;45.192;5.722;2023-04-21T02:54:43;8.00;;;4.87;;
13222;SDS011;6676;45.192;5.722;2023-04-21T02:57:35;6.60;;;5.15;;
13222;SDS011;6676;45.192;5.722;2023-04-21T03:00:26;6.00;;;5.40;;
13222;SDS011;6676;45.192;5.722;2023-04-21T03:03:17;5.80;;;5.20;;
13222;SDS011;6676;45.192;5.722;2023-04-21T03:06:09;7.60;;;5.62;;
13222;SDS011;6676;45.192;5.722;2023-04-21T03:09:01;8.93;;;6.95;;
13222;SDS011;6676;45.192;5.722;2023-04-21T03:11:53;7.10;;;6.35;;
13222;SDS011;6676;45.192;5.722;2023-04-21T03:14:47;9.60;;;7.17;;
13222;SDS011;6676;45.192;5.722;2023-04-21T03:17:38;10.23;;;7.45;;
13222;SDS011;6676;45.192;5.722;2023-04-21T03:20:30;10.03;;;7.62;;
13222;SDS011;6676;45.192;5.722;2023-04-21T03:23:21;9.65;;;7.97;;
13222;SDS011;6676;45.192;5.722;2023-04-21T03:26:13;10.13;;;7.95;;
13222;SDS011;6676;45.192;5.722;2023-04-21T03:29:05;11.30;;;8.45;;
13222;SDS011;6676;45.192;5.722;2023-04-21T03:31:57;11.55;;;8.63;;
13222;SDS011;6676;45.192;5.722;2023-04-21T03:34:49;9.90;;;8.43;;
13222;SDS011;6676;45.192;5.722;2023-04-21T03:37:40;10.53;;;8.63;;
13222;SDS011;6676;45.192;5.722;2023-04-21T03:40:31;11.18;;;9.18;;
13222;SDS011;6676;45.192;5.722;2023-04-21T03:43:23;11.73;;;8.83;;
13222;SDS011;6676;45.192;5.722;2023-04-21T03:46:18;11.18;;;8.50;;
13222;SDS011;6676;45.192;5.722;2023-04-21T03:49:10;8.83;;;7.65;;
13222;SDS011;6676;45.192;5.722;2023-04-21T03:52:02;8.85;;;7.92;;
13222;SDS011;6676;45.192;5.722;2023-04-21T03:54:54;10.00;;;8.33;;
13222;SDS011;6676;45.192;5.722;2023-04-21T03:57:46;9.40;;;8.18;;
13222;SDS011;6676;45.192;5.722;2023-04-21T04:00:37;10.35;;;8.23;;
13222;SDS011;6676;45.192;5.722;2023-04-21T04:03:29;9.18;;;8.25;;
13222;SDS011;6676;45.192;5.722;2023-04-21T04:06:21;11.63;;;8.88;;
13222;SDS011;6676;45.192;5.722;2023-04-21T04:09:12;9.68;;;8.35;;
13222;SDS011;6676;45.192;5.722;2023-04-21T04:12:04;10.28;;;8.60;;
13222;SDS011;6676;45.192;5.722;2023-04-21T04:14:57;9.98;;;8.50;;
13222;SDS011;6676;45.192;5.722;2023-04-21T04:17:49;11.10;;;9.60;;
13222;SDS011;6676;45.192;5.722;2023-04-21T04:20:41;11.73;;;9.55;;
13222;SDS011;6676;45.192;5.722;2023-04-21T04:23:33;12.95;;;10.28;;
13222;SDS011;6676;45.192;5.722;2023-04-21T04:26:14;12.82;;;10.32;;
13222;SDS011;6676;45.192;5.722;2023-04-21T04:29:06;12.80;;;9.88;;
13222;SDS011;6676;45.192;5.722;2023-04-21T04:31:58;12.95;;;10.23;;
13222;SDS011;6676;45.192;5.722;2023-04-21T04:34:51;12.43;;;9.98;;
13222;SDS011;6676;45.192;5.722;2023-04-21T04:37:44;11.95;;;10.00;;
13222;SDS011;6676;45.192;5.722;2023-04-21T04:40:36;13.43;;;10.30;;
13222;SDS011;6676;45.192;5.722;2023-04-21T04:43:27;13.15;;;10.85;;
13222;SDS011;6676;45.192;5.722;2023-04-21T04:46:20;12.23;;;10.85;;
13222;SDS011;6676;45.192;5.722;2023-04-21T04:49:12;15.50;;;10.25;;
13222;SDS011;6676;45.192;5.722;2023-04-21T04:52:04;13.30;;;10.80;;
13222;SDS011;6676;45.192;5.722;2023-04-21T04:54:56;11.43;;;10.20;;
13222;SDS011;6676;45.192;5.722;2023-04-21T04:57:47;14.98;;;11.08;;
13222;SDS011;6676;45.192;5.722;2023-04-21T05:03:17;12.30;;;10.68;;
13222;SDS011;6676;45.192;5.722;2023-04-21T05:06:09;11.97;;;10.65;;
13222;SDS011;6676;45.192;5.722;2023-04-21T05:09:01;11.95;;;10.65;;
13222;SDS011;6676;45.192;5.722;2023-04-21T05:11:53;12.55;;;10.75;;
13222;SDS011;6676;45.192;5.722;2023-04-21T05:14:44;12.75;;;10.50;;
13222;SDS011;6676;45.192;5.722;2023-04-21T05:17:36;13.15;;;10.88;;
13222;SDS011;6676;45.192;5.722;2023-04-21T05:20:27;14.13;;;11.50;;
13222;SDS011;6676;45.192;5.722;2023-04-21T05:23:19;13.30;;;11.18;;
13222;SDS011;6676;45.192;5.722;2023-04-21T05:28:54;14.20;;;10.98;;
13222;SDS011;6676;45.192;5.722;2023-04-21T05:31:47;13.22;;;11.15;;
13222;SDS011;6676;45.192;5.722;2023-04-21T05:34:38;15.98;;;12.50;;
13222;SDS011;6676;45.192;5.722;2023-04-21T05:37:29;15.35;;;11.48;;
13222;SDS011;6676;45.192;5.722;2023-04-21T05:40:21;16.42;;;11.15;;
13222;SDS011;6676;45.192;5.722;2023-04-21T05:43:12;14.78;;;11.25;;
13222;SDS011;6676;45.192;5.722;2023-04-21T05:46:07;14.78;;;10.82;;
13222;SDS011;6676;45.192;5.722;2023-04-21T05:48:58;14.68;;;11.10;;
13222;SDS011;6676;45.192;5.722;2023-04-21T05:51:50;13.70;;;10.65;;
13222;SDS011;6676;45.192;5.722;2023-04-21T05:54:42;14.55;;;10.43;;
13222;SDS011;6676;45.192;5.722;2023-04-21T05:57:34;14.40;;;10.55;;
13222;SDS011;6676;45.192;5.722;2023-04-21T06:00:25;13.43;;;11.03;;
13222;SDS011;6676;45.192;5.722;2023-04-21T06:03:17;13.35;;;10.35;;
13222;SDS011;6676;45.192;5.722;2023-04-21T06:06:08;12.10;;;10.20;;
13222;SDS011;6676;45.192;5.722;2023-04-21T06:09:00;10.20;;;9.10;;
13222;SDS011;6676;45.192;5.722;2023-04-21T06:11:52;9.63;;;7.42;;
13222;SDS011;6676;45.192;5.722;2023-04-21T06:14:45;9.53;;;6.45;;
13222;SDS011;6676;45.192;5.722;2023-04-21T06:17:36;7.87;;;6.03;;
13222;SDS011;6676;45.192;5.722;2023-04-21T06:20:28;5.55;;;5.03;;
13222;SDS011;6676;45.192;5.722;2023-04-21T06:23:19;7.55;;;4.78;;
13222;SDS011;6676;45.192;5.722;2023-04-21T06:26:11;6.95;;;5.00;;
13222;SDS011;6676;45.192;5.722;2023-04-21T06:29:05;5.75;;;4.65;;
13222;SDS011;6676;45.192;5.722;2023-04-21T06:31:57;7.50;;;5.92;;
13222;SDS011;6676;45.192;5.722;2023-04-21T06:34:49;6.85;;;6.10;;
13222;SDS011;6676;45.192;5.722;2023-04-21T06:37:41;7.05;;;6.35;;
13222;SDS011;6676;45.192;5.722;2023-04-21T06:40:32;7.95;;;6.33;;
13222;SDS011;6676;45.192;5.722;2023-04-21T06:43:24;6.40;;;5.45;;
13222;SDS011;6676;45.192;5.722;2023-04-21T06:46:15;6.87;;;5.75;;
13222;SDS011;6676;45.192;5.722;2023-04-21T06:49:07;6.05;;;5.30;;
13222;SDS011;6676;45.192;5.722;2023-04-21T06:51:58;10.10;;;5.58;;
13222;SDS011;6676;45.192;5.722;2023-04-21T06:54:50;8.70;;;5.40;;
13222;SDS011;6676;45.192;5.722;2023-04-21T06:57:42;6.97;;;5.05;;
13222;SDS011;6676;45.192;5.722;2023-04-21T07:00:33;5.50;;;4.97;;
13222;SDS011;6676;45.192;5.722;2023-04-21T07:03:25;6.20;;;4.40;;
13222;SDS011;6676;45.192;5.722;2023-04-21T07:06:16;7.15;;;4.20;;
13222;SDS011;6676;45.192;5.722;2023-04-21T07:09:08;4.97;;;3.90;;
13222;SDS011;6676;45.192;5.722;2023-04-21T07:11:59;6.12;;;4.10;;
13222;SDS011;6676;45.192;5.722;2023-04-21T07:14:50;7.22;;;4.00;;
13222;SDS011;6676;45.192;5.722;2023-04-21T07:17:41;5.67;;;3.67;;
13222;SDS011;6676;45.192;5.722;2023-04-21T07:23:11;5.67;;;3.95;;
13222;SDS011;6676;45.192;5.722;2023-04-21T07:26:02;5.83;;;3.75;;
13222;SDS011;6676;45.192;5.722;2023-04-21T07:28:54;4.80;;;3.75;;
13222;SDS011;6676;45.192;5.722;2023-04-21T07:31:46;3.72;;;3.25;;
13222;SDS011;6676;45.192;5.722;2023-04-21T07:34:37;5.25;;;3.75;;
13222;SDS011;6676;45.192;5.722;2023-04-21T07:37:29;4.70;;;3.55;;
13222;SDS011;6676;45.192;5.722;2023-04-21T07:40:23;3.62;;;3.25;;
13222;SDS011;6676;45.192;5.722;2023-04-21T07:43:15;4.33;;;3.00;;
13222;SDS011;6676;45.192;5.722;2023-04-21T07:46:09;4.00;;;2.37;;
13222;SDS011;6676;45.192;5.722;2023-04-21T07:48:49;2.67;;;1.98;;
13222;SDS011;6676;45.192;5.722;2023-04-21T07:51:40;3.12;;;2.10;;
13222;SDS011;6676;45.192;5.722;2023-04-21T07:54:31;4.80;;;2.40;;
13222;SDS011;6676;45.192;5.722;2023-04-21T07:57:23;5.58;;;2.58;;
13222;SDS011;6676;45.192;5.722;2023-04-21T08:00:15;2.95;;;1.98;;
13222;SDS011;6676;45.192;5.722;2023-04-21T08:03:07;4.35;;;2.35;;
13222;SDS011;6676;45.192;5.722;2023-04-21T08:06:01;2.70;;;2.10;;
13222;SDS011;6676;45.192;5.722;2023-04-21T08:08:55;3.75;;;2.02;;
13222;SDS011;6676;45.192;5.722;2023-04-21T08:11:46;4.20;;;2.00;;
13222;SDS011;6676;45.192;5.722;2023-04-21T08:14:38;1.95;;;1.62;;
13222;SDS011;6676;45.192;5.722;2023-04-21T08:20:09;4.42;;;2.30;;
13222;SDS011;6676;45.192;5.722;2023-04-21T08:23:02;2.65;;;1.80;;
13222;SDS011;6676;45.192;5.722;2023-04-21T08:25:53;2.67;;;1.72;;
13222;SDS011;6676;45.192;5.722;2023-04-21T08:28:44;3.15;;;2.10;;
13222;SDS011;6676;45.192;5.722;2023-04-21T08:31:36;3.45;;;1.70;;
13222;SDS011;6676;45.192;5.722;2023-04-21T08:34:28;3.02;;;1.85;;
13222;SDS011;6676;45.192;5.722;2023-04-21T08:37:21;2.70;;;1.62;;
13222;SDS011;6676;45.192;5.722;2023-04-21T08:40:13;2.77;;;1.62;;
13222;SDS011;6676;45.192;5.722;2023-04-21T08:43:05;2.95;;;1.70;;
13222;SDS011;6676;45.192;5.722;2023-04-21T08:45:57;1.95;;;1.70;;
13222;SDS011;6676;45.192;5.722;2023-04-21T08:49:15;3.58;;;1.60;;
13222;SDS011;6676;45.192;5.722;2023-04-21T08:52:10;1.90;;;1.35;;
13222;SDS011;6676;45.192;5.722;2023-04-21T08:55:03;2.83;;;1.70;;
13222;SDS011;6676;45.192;5.722;2023-04-21T08:57:56;2.85;;;1.67;;
13222;SDS011;6676;45.192;5.722;2023-04-21T09:00:47;5.83;;;1.82;;
13222;SDS011;6676;45.192;5.722;2023-04-21T09:03:39;2.55;;;1.70;;
13222;SDS011;6676;45.192;5.722;2023-04-21T09:06:39;3.05;;;1.60;;
13222;SDS011;6676;45.192;5.722;2023-04-21T09:09:31;2.47;;;1.40;;
13222;SDS011;6676;45.192;5.722;2023-04-21T09:12:24;3.12;;;2.30;;
13222;SDS011;6676;45.192;5.722;2023-04-21T09:15:16;1.82;;;1.72;;
13222;SDS011;6676;45.192;5.722;2023-04-21T09:18:13;4.50;;;3.80;;
13222;SDS011;6676;45.192;5.722;2023-04-21T09:21:06;3.70;;;1.50;;
13222;SDS011;6676;45.192;5.722;2023-04-21T09:24:00;2.90;;;1.50;;
13222;SDS011;6676;45.192;5.722;2023-04-21T09:26:55;2.47;;;1.40;;
13222;SDS011;6676;45.192;5.722;2023-04-21T09:29:46;3.50;;;1.40;;
13222;SDS011;6676;45.192;5.722;2023-04-21T09:35:41;2.60;;;1.40;;
13222;SDS011;6676;45.192;5.722;2023-04-21T09:38:33;3.52;;;1.30;;
13222;SDS011;6676;45.192;5.722;2023-04-21T09:41:24;2.65;;;1.10;;
13222;SDS011;6676;45.192;5.722;2023-04-21T09:44:16;1.77;;;1.10;;
13222;SDS011;6676;45.192;5.722;2023-04-21T09:47:09;1.67;;;1.27;;
13222;SDS011;6676;45.192;5.722;2023-04-21T09:50:03;2.20;;;1.20;;
13222;SDS011;6676;45.192;5.722;2023-04-21T09:52:58;2.42;;;1.57;;
13222;SDS011;6676;45.192;5.722;2023-04-21T09:55:52;3.72;;;1.72;;
13222;SDS011;6676;45.192;5.722;2023-04-21T09:58:46;1.55;;;1.30;;
13222;SDS011;6676;45.192;5.722;2023-04-21T10:01:27;2.35;;;1.35;;
13222;SDS011;6676;45.192;5.722;2023-04-21T10:04:19;1.98;;;1.07;;
13222;SDS011;6676;45.192;5.722;2023-04-21T10:07:14;1.92;;;1.30;;
13222;SDS011;6676;45.192;5.722;2023-04-21T10:10:07;3.77;;;1.87;;
13222;SDS011;6676;45.192;5.722;2023-04-21T10:13:01;1.75;;;1.40;;
13222;SDS011;6676;45.192;5.722;2023-04-21T10:15:42;2.87;;;1.65;;
13222;SDS011;6676;45.192;5.722;2023-04-21T10:18:34;2.75;;;1.40;;
13222;SDS011;6676;45.192;5.722;2023-04-21T10:21:26;2.52;;;1.65;;
13222;SDS011;6676;45.192;5.722;2023-04-21T10:24:19;3.22;;;1.80;;
13222;SDS011;6676;45.192;5.722;2023-04-21T10:27:11;2.30;;;1.65;;
13222;SDS011;6676;45.192;5.722;2023-04-21T10:30:20;4.22;;;1.60;;
13222;SDS011;6676;45.192;5.722;2023-04-21T10:33:14;5.40;;;2.15;;
13222;SDS011;6676;45.192;5.722;2023-04-21T10:36:09;3.55;;;2.08;;
13222;SDS011;6676;45.192;5.722;2023-04-21T10:39:03;3.40;;;1.82;;
13222;SDS011;6676;45.192;5.722;2023-04-21T10:42:16;3.50;;;1.80;;
13222;SDS011;6676;45.192;5.722;2023-04-21T10:45:09;3.65;;;2.27;;
13222;SDS011;6676;45.192;5.722;2023-04-21T10:48:01;5.08;;;1.85;;
13222;SDS011;6676;45.192;5.722;2023-04-21T10:50:56;3.52;;;1.52;;
13222;SDS011;6676;45.192;5.722;2023-04-21T10:53:53;3.17;;;1.50;;
13222;SDS011;6676;45.192;5.722;2023-04-21T10:57:25;2.47;;;1.42;;
13222;SDS011;6676;45.192;5.722;2023-04-21T11:00:20;3.52;;;1.60;;
13222;SDS011;6676;45.192;5.722;2023-04-21T11:03:12;2.33;;;1.50;;
13222;SDS011;6676;45.192;5.722;2023-04-21T11:06:14;3.12;;;1.67;;
13222;SDS011;6676;45.192;5.722;2023-04-21T11:09:15;3.08;;;1.40;;
13222;SDS011;6676;45.192;5.722;2023-04-21T11:12:09;2.15;;;1.52;;
13222;SDS011;6676;45.192;5.722;2023-04-21T11:15:03;3.00;;;1.85;;
13222;SDS011;6676;45.192;5.722;2023-04-21T11:18:17;2.35;;;1.52;;
13222;SDS011;6676;45.192;5.722;2023-04-21T11:21:11;1.72;;;1.50;;
13222;SDS011;6676;45.192;5.722;2023-04-21T11:24:09;1.92;;;1.50;;
13222;SDS011;6676;45.192;5.722;2023-04-21T11:27:06;3.87;;;1.85;;
13222;SDS011;6676;45.192;5.722;2023-04-21T11:30:01;2.15;;;1.50;;
13222;SDS011;6676;45.192;5.722;2023-04-21T11:32:53;2.05;;;1.40;;
13222;SDS011;6676;45.192;5.722;2023-04-21T11:35:45;2.62;;;1.55;;
13222;SDS011;6676;45.192;5.722;2023-04-21T11:38:39;3.02;;;1.90;;
13222;SDS011;6676;45.192;5.722;2023-04-21T11:41:31;4.25;;;1.40;;
13222;SDS011;6676;45.192;5.722;2023-04-21T11:44:30;2.40;;;1.82;;
13222;SDS011;6676;45.192;5.722;2023-04-21T11:47:25;4.95;;;3.12;;
13222;SDS011;6676;45.192;5.722;2023-04-21T11:50:29;4.17;;;1.35;;
13222;SDS011;6676;45.192;5.722;2023-04-21T11:53:22;3.37;;;1.32;;
13222;SDS011;6676;45.192;5.722;2023-04-21T11:56:16;2.92;;;2.60;;
13222;SDS011;6676;45.192;5.722;2023-04-21T11:59:10;2.80;;;1.85;;
13222;SDS011;6676;45.192;5.722;2023-04-21T12:02:03;1.47;;;1.10;;
13222;SDS011;6676;45.192;5.722;2023-04-21T12:04:59;3.40;;;1.40;;
13222;SDS011;6676;45.192;5.722;2023-04-21T12:07:54;1.82;;;0.72;;
13222;SDS011;6676;45.192;5.722;2023-04-21T12:10:45;1.90;;;0.90;;
13222;SDS011;6676;45.192;5.722;2023-04-21T12:13:39;1.10;;;0.80;;
13222;SDS011;6676;45.192;5.722;2023-04-21T12:16:31;2.27;;;1.10;;
13222;SDS011;6676;45.192;5.722;2023-04-21T12:19:23;2.17;;;1.20;;
13222;SDS011;6676;45.192;5.722;2023-04-21T12:22:16;1.82;;;1.07;;
13222;SDS011;6676;45.192;5.722;2023-04-21T12:25:22;4.33;;;1.10;;
13222;SDS011;6676;45.192;5.722;2023-04-21T12:28:15;1.65;;;0.90;;
13222;SDS011;6676;45.192;5.722;2023-04-21T12:31:07;2.22;;;1.10;;
13222;SDS011;6676;45.192;5.722;2023-04-21T12:33:58;2.33;;;1.10;;
13222;SDS011;6676;45.192;5.722;2023-04-21T12:36:51;2.80;;;1.00;;
13222;SDS011;6676;45.192;5.722;2023-04-21T12:39:42;1.05;;;0.78;;
13222;SDS011;6676;45.192;5.722;2023-04-21T12:42:34;5.58;;;0.90;;
13222;SDS011;6676;45.192;5.722;2023-04-21T12:45:28;1.92;;;0.70;;
13222;SDS011;6676;45.192;5.722;2023-04-21T12:48:21;2.47;;;0.62;;
13222;SDS011;6676;45.192;5.722;2023-04-21T12:51:12;2.12;;;0.60;;
13222;SDS011;6676;45.192;5.722;2023-04-21T12:54:04;2.00;;;0.62;;
13222;SDS011;6676;45.192;5.722;2023-04-21T12:56:56;2.10;;;0.88;;
13222;SDS011;6676;45.192;5.722;2023-04-21T12:59:48;0.88;;;0.70;;
13222;SDS011;6676;45.192;5.722;2023-04-21T13:02:40;3.05;;;1.30;;
13222;SDS011;6676;45.192;5.722;2023-04-21T13:05:31;1.62;;;1.10;;
13222;SDS011;6676;45.192;5.722;2023-04-21T13:08:23;1.20;;;0.80;;
13222;SDS011;6676;45.192;5.722;2023-04-21T13:11:14;1.75;;;0.68;;
13222;SDS011;6676;45.192;5.722;2023-04-21T13:14:06;1.80;;;0.80;;
13222;SDS011;6676;45.192;5.722;2023-04-21T13:16:57;1.15;;;0.78;;
13222;SDS011;6676;45.192;5.722;2023-04-21T13:19:49;1.22;;;0.50;;
13222;SDS011;6676;45.192;5.722;2023-04-21T13:22:43;2.12;;;0.60;;
13222;SDS011;6676;45.192;5.722;2023-04-21T13:25:36;1.77;;;0.70;;
13222;SDS011;6676;45.192;5.722;2023-04-21T13:28:27;2.02;;;0.70;;
13222;SDS011;6676;45.192;5.722;2023-04-21T13:31:19;1.95;;;0.80;;
13222;SDS011;6676;45.192;5.722;2023-04-21T13:34:10;1.85;;;0.70;;
13222;SDS011;6676;45.192;5.722;2023-04-21T13:37:02;1.15;;;0.60;;
13222;SDS011;6676;45.192;5.722;2023-04-21T13:39:55;2.30;;;0.88;;
13222;SDS011;6676;45.192;5.722;2023-04-21T13:42:50;0.68;;;0.68;;
13222;SDS011;6676;45.192;5.722;2023-04-21T13:45:42;1.82;;;0.90;;
13222;SDS011;6676;45.192;5.722;2023-04-21T13:48:35;1.00;;;0.70;;
13222;SDS011;6676;45.192;5.722;2023-04-21T13:51:26;3.50;;;0.93;;
13222;SDS011;6676;45.192;5.722;2023-04-21T13:54:17;7.17;;;0.93;;
13222;SDS011;6676;45.192;5.722;2023-04-21T13:57:09;0.70;;;0.60;;
13222;SDS011;6676;45.192;5.722;2023-04-21T14:02:41;1.57;;;0.70;;
13222;SDS011;6676;45.192;5.722;2023-04-21T14:05:33;2.05;;;0.70;;
13222;SDS011;6676;45.192;5.722;2023-04-21T14:08:25;2.52;;;0.85;;
13222;SDS011;6676;45.192;5.722;2023-04-21T14:11:16;2.98;;;0.80;;
13222;SDS011;6676;45.192;5.722;2023-04-21T14:14:08;2.75;;;1.52;;
13222;SDS011;6676;45.192;5.722;2023-04-21T14:17:01;1.27;;;0.85;;
13222;SDS011;6676;45.192;5.722;2023-04-21T14:19:53;3.22;;;0.70;;
13222;SDS011;6676;45.192;5.722;2023-04-21T14:22:44;1.77;;;0.88;;
13222;SDS011;6676;45.192;5.722;2023-04-21T14:25:36;1.20;;;0.62;;
13222;SDS011;6676;45.192;5.722;2023-04-21T14:28:28;1.90;;;0.80;;
13222;SDS011;6676;45.192;5.722;2023-04-21T14:31:20;3.25;;;0.80;;
13222;SDS011;6676;45.192;5.722;2023-04-21T14:34:11;1.85;;;0.70;;
13222;SDS011;6676;45.192;5.722;2023-04-21T14:37:03;1.72;;;1.00;;
13222;SDS011;6676;45.192;5.722;2023-04-21T14:39:54;1.75;;;0.82;;
13222;SDS011;6676;45.192;5.722;2023-04-21T14:42:46;0.82;;;0.65;;
13222;SDS011;6676;45.192;5.722;2023-04-21T14:45:38;1.85;;;0.70;;
13222;SDS011;6676;45.192;5.722;2023-04-21T14:48:34;0.90;;;0.70;;
13222;SDS011;6676;45.192;5.722;2023-04-21T14:51:26;0.90;;;0.70;;
13222;SDS011;6676;45.192;5.722;2023-04-21T14:54:19;3.75;;;0.82;;
13222;SDS011;6676;45.192;5.722;2023-04-21T14:57:10;1.42;;;0.70;;
13222;SDS011;6676;45.192;5.722;2023-04-21T15:00:04;1.72;;;1.00;;
13222;SDS011;6676;45.192;5.722;2023-04-21T15:02:58;2.25;;;0.78;;
13222;SDS011;6676;45.192;5.722;2023-04-21T15:05:49;1.32;;;0.90;;
13222;SDS011;6676;45.192;5.722;2023-04-21T15:08:41;1.05;;;0.70;;
13222;SDS011;6676;45.192;5.722;2023-04-21T15:11:32;0.93;;;0.80;;
13222;SDS011;6676;45.192;5.722;2023-04-21T15:14:24;1.90;;;0.93;;
13222;SDS011;6676;45.192;5.722;2023-04-21T15:17:16;2.80;;;1.07;;
13222;SDS011;6676;45.192;5.722;2023-04-21T15:20:09;0.70;;;0.70;;
13222;SDS011;6676;45.192;5.722;2023-04-21T15:23:00;3.58;;;0.80;;
13222;SDS011;6676;45.192;5.722;2023-04-21T15:25:52;1.95;;;1.00;;
13222;SDS011;6676;45.192;5.722;2023-04-21T15:28:43;2.00;;;0.88;;
13222;SDS011;6676;45.192;5.722;2023-04-21T15:31:34;2.45;;;0.75;;
13222;SDS011;6676;45.192;5.722;2023-04-21T15:34:26;3.37;;;0.90;;
13222;SDS011;6676;45.192;5.722;2023-04-21T15:37:18;1.70;;;1.00;;
13222;SDS011;6676;45.192;5.722;2023-04-21T15:40:11;1.37;;;0.80;;
13222;SDS011;6676;45.192;5.722;2023-04-21T15:43:02;1.67;;;0.98;;
13222;SDS011;6676;45.192;5.722;2023-04-21T15:45:54;1.98;;;0.90;;
13222;SDS011;6676;45.192;5.722;2023-04-21T15:48:45;1.30;;;0.88;;
13222;SDS011;6676;45.192;5.722;2023-04-21T15:51:31;2.58;;;1.00;;
13222;SDS011;6676;45.192;5.722;2023-04-21T15:54:24;1.75;;;1.00;;
13222;SDS011;6676;45.192;5.722;2023-04-21T15:57:16;1.07;;;0.98;;
13222;SDS011;6676;45.192;5.722;2023-04-21T16:00:10;1.47;;;1.00;;
13222;SDS011;6676;45.192;5.722;2023-04-21T16:03:03;2.20;;;1.20;;
13222;SDS011;6676;45.192;5.722;2023-04-21T16:05:55;7.33;;;1.42;;
13222;SDS011;6676;45.192;5.722;2023-04-21T16:08:47;4.40;;;1.60;;
13222;SDS011;6676;45.192;5.722;2023-04-21T16:11:39;1.60;;;0.85;;
13222;SDS011;6676;45.192;5.722;2023-04-21T16:14:30;2.42;;;1.00;;
13222;SDS011;6676;45.192;5.722;2023-04-21T16:17:23;1.70;;;0.90;;
13222;SDS011;6676;45.192;5.722;2023-04-21T16:20:15;1.60;;;1.17;;
13222;SDS011;6676;45.192;5.722;2023-04-21T16:23:08;2.92;;;1.45;;
13222;SDS011;6676;45.192;5.722;2023-04-21T16:26:00;4.17;;;3.85;;
13222;SDS011;6676;45.192;5.722;2023-04-21T16:28:53;2.25;;;1.20;;
13222;SDS011;6676;45.192;5.722;2023-04-21T16:31:45;2.35;;;1.10;;
13222;SDS011;6676;45.192;5.722;2023-04-21T16:34:36;1.50;;;0.88;;
13222;SDS011;6676;45.192;5.722;2023-04-21T16:37:29;2.05;;;1.00;;
13222;SDS011;6676;45.192;5.722;2023-04-21T16:40:23;2.40;;;0.90;;
13222;SDS011;6676;45.192;5.722;2023-04-21T16:43:15;2.17;;;1.02;;
13222;SDS011;6676;45.192;5.722;2023-04-21T16:46:07;2.58;;;0.93;;
13222;SDS011;6676;45.192;5.722;2023-04-21T16:48:58;2.77;;;1.10;;
13222;SDS011;6676;45.192;5.722;2023-04-21T16:51:50;1.37;;;0.80;;
13222;SDS011;6676;45.192;5.722;2023-04-21T16:54:42;2.58;;;1.10;;
13222;SDS011;6676;45.192;5.722;2023-04-21T16:57:34;2.00;;;1.00;;
13222;SDS011;6676;45.192;5.722;2023-04-21T17:00:25;1.70;;;1.20;;
13222;SDS011;6676;45.192;5.722;2023-04-21T17:03:17;1.12;;;0.90;;
13222;SDS011;6676;45.192;5.722;2023-04-21T17:06:09;1.92;;;1.75;;
13222;SDS011;6676;45.192;5.722;2023-04-21T17:09:03;2.50;;;1.10;;
13222;SDS011;6676;45.192;5.722;2023-04-21T17:11:55;2.40;;;1.10;;
13222;SDS011;6676;45.192;5.722;2023-04-21T17:14:47;3.92;;;1.10;;
13222;SDS011;6676;45.192;5.722;2023-04-21T17:17:39;2.40;;;1.00;;
13222;SDS011;6676;45.192;5.722;2023-04-21T17:20:33;2.95;;;1.10;;
13222;SDS011;6676;45.192;5.722;2023-04-21T17:23:24;1.70;;;1.00;;
13222;SDS011;6676;45.192;5.722;2023-04-21T17:26:17;3.47;;;1.15;;
13222;SDS011;6676;45.192;5.722;2023-04-21T17:28:57;1.57;;;1.17;;
13222;SDS011;6676;45.192;5.722;2023-04-21T17:31:49;1.55;;;1.00;;
13222;SDS011;6676;45.192;5.722;2023-04-21T17:34:44;2.72;;;1.15;;
13222;SDS011;6676;45.192;5.722;2023-04-21T17:37:35;2.62;;;1.37;;
13222;SDS011;6676;45.192;5.722;2023-04-21T17:40:26;2.02;;;1.00;;
13222;SDS011;6676;45.192;5.722;2023-04-21T17:43:18;3.17;;;2.00;;
13222;SDS011;6676;45.192;5.722;2023-04-21T17:46:10;2.35;;;1.10;;
13222;SDS011;6676;45.192;5.722;2023-04-21T17:49:02;1.55;;;1.10;;